sensor_id;sensor_type;location;lat;lon;timestamp;pressure;altitude;pressure_sealevel;temperature;humidity
59190;BME280;50749;51.636;4.948;2023-02-01T00:01:50;102144.25;;;17.20;51.99
59190;BME280;50749;51.636;4.948;2023-02-01T00:04:16;102136.28;;;17.18;51.81
59190;BME280;50749;51.636;4.948;2023-02-01T00:06:41;102124.41;;;17.18;52.00
59190;BME280;50749;51.636;4.948;2023-02-01T00:09:07;102111.75;;;17.17;51.80
59190;BME280;50749;51.636;4.948;2023-02-01T00:11:33;102112.88;;;17.16;51.83
59190;BME280;50749;51.636;4.948;2023-02-01T00:14:00;102111.25;;;17.15;52.00
59190;BME280;50749;51.636;4.948;2023-02-01T00:16:28;102111.91;;;17.12;52.01
59190;BME280;50749;51.636;4.948;2023-02-01T00:19:03;102099.53;;;17.09;52.05
59190;BME280;50749;51.636;4.948;2023-02-01T00:21:29;102104.25;;;17.08;51.87
59190;BME280;50749;51.636;4.948;2023-02-01T00:23:56;102108.13;;;17.07;52.29
59190;BME280;50749;51.636;4.948;2023-02-01T00:26:42;102099.34;;;17.05;51.80
59190;BME280;50749;51.636;4.948;2023-02-01T00:29:14;102102.13;;;17.05;52.04
59190;BME280;50749;51.636;4.948;2023-02-01T00:31:40;102097.72;;;17.04;52.15
59190;BME280;50749;51.636;4.948;2023-02-01T00:34:06;102102.75;;;17.02;52.00
59190;BME280;50749;51.636;4.948;2023-02-01T00:36:32;102103.06;;;17.01;52.27
59190;BME280;50749;51.636;4.948;2023-02-01T00:38:58;102107.00;;;17.00;52.38
59190;BME280;50749;51.636;4.948;2023-02-01T00:41:24;102105.84;;;17.01;52.12
59190;BME280;50749;51.636;4.948;2023-02-01T00:43:50;102099.81;;;16.99;52.29
59190;BME280;50749;51.636;4.948;2023-02-01T00:46:18;102099.34;;;16.97;52.27
59190;BME280;50749;51.636;4.948;2023-02-01T00:48:45;102101.28;;;16.96;52.34
59190;BME280;50749;51.636;4.948;2023-02-01T00:51:14;102103.53;;;16.94;52.63
59190;BME280;50749;51.636;4.948;2023-02-01T00:53:40;102091.69;;;16.94;52.03
59190;BME280;50749;51.636;4.948;2023-02-01T00:56:06;102100.28;;;16.92;52.34
59190;BME280;50749;51.636;4.948;2023-02-01T00:58:33;102105.00;;;16.92;52.29
59190;BME280;50749;51.636;4.948;2023-02-01T01:01:07;102101.78;;;16.89;52.05
59190;BME280;50749;51.636;4.948;2023-02-01T01:03:34;102099.31;;;16.88;52.31
59190;BME280;50749;51.636;4.948;2023-02-01T01:06:02;102111.50;;;16.87;52.33
59190;BME280;50749;51.636;4.948;2023-02-01T01:08:29;102107.09;;;16.86;52.30
59190;BME280;50749;51.636;4.948;2023-02-01T01:10:55;102105.75;;;16.83;52.21
59190;BME280;50749;51.636;4.948;2023-02-01T01:13:21;102095.84;;;16.82;52.09
59190;BME280;50749;51.636;4.948;2023-02-01T01:15:47;102089.50;;;16.82;52.01
59190;BME280;50749;51.636;4.948;2023-02-01T01:18:13;102086.25;;;16.80;52.17
59190;BME280;50749;51.636;4.948;2023-02-01T01:20:40;102087.72;;;16.77;52.24
59190;BME280;50749;51.636;4.948;2023-02-01T01:23:07;102089.66;;;16.77;51.88
59190;BME280;50749;51.636;4.948;2023-02-01T01:25:37;102086.09;;;16.76;52.06
59190;BME280;50749;51.636;4.948;2023-02-01T01:28:03;102088.03;;;16.76;52.27
59190;BME280;50749;51.636;4.948;2023-02-01T01:30:28;102077.28;;;16.74;52.21
59190;BME280;50749;51.636;4.948;2023-02-01T01:32:54;102085.56;;;16.74;52.41
59190;BME280;50749;51.636;4.948;2023-02-01T01:35:20;102081.22;;;16.73;51.92
59190;BME280;50749;51.636;4.948;2023-02-01T01:37:46;102078.75;;;16.71;52.29
59190;BME280;50749;51.636;4.948;2023-02-01T01:40:12;102087.38;;;16.70;52.36
59190;BME280;50749;51.636;4.948;2023-02-01T01:42:42;102088.16;;;16.70;52.46
59190;BME280;50749;51.636;4.948;2023-02-01T01:45:32;102079.41;;;16.68;52.26
59190;BME280;50749;51.636;4.948;2023-02-01T01:48:00;102089.63;;;16.68;52.35
59190;BME280;50749;51.636;4.948;2023-02-01T01:50:34;102084.44;;;16.66;52.08
59190;BME280;50749;51.636;4.948;2023-02-01T01:53:03;102087.81;;;16.63;52.29
59190;BME280;50749;51.636;4.948;2023-02-01T01:55:33;102081.19;;;16.64;52.41
59190;BME280;50749;51.636;4.948;2023-02-01T01:58:04;102083.44;;;16.62;52.30
59190;BME280;50749;51.636;4.948;2023-02-01T02:00:32;102076.28;;;16.61;52.25
59190;BME280;50749;51.636;4.948;2023-02-01T02:03:44;102081.81;;;16.61;52.13
59190;BME280;50749;51.636;4.948;2023-02-01T02:05:54;102084.88;;;16.60;52.19
59190;BME280;50749;51.636;4.948;2023-02-01T02:08:24;102075.78;;;16.59;52.04
59190;BME280;50749;51.636;4.948;2023-02-01T02:10:52;102069.44;;;16.59;52.24
59190;BME280;50749;51.636;4.948;2023-02-01T02:13:41;102063.13;;;16.58;52.37
59190;BME280;50749;51.636;4.948;2023-02-01T02:18:56;102059.88;;;16.56;52.04
59190;BME280;50749;51.636;4.948;2023-02-01T02:27:00;102048.66;;;16.52;52.45
59190;BME280;50749;51.636;4.948;2023-02-01T02:35:02;102057.25;;;16.51;52.44
59190;BME280;50749;51.636;4.948;2023-02-01T02:37:40;102062.25;;;16.49;52.44
59190;BME280;50749;51.636;4.948;2023-02-01T02:43:17;102060.16;;;16.46;52.23
59190;BME280;50749;51.636;4.948;2023-02-01T02:46:21;102051.03;;;16.45;52.37
59190;BME280;50749;51.636;4.948;2023-02-01T02:49:20;102039.50;;;16.43;52.15
59190;BME280;50749;51.636;4.948;2023-02-01T02:51:56;102035.63;;;16.44;52.16
59190;BME280;50749;51.636;4.948;2023-02-01T02:54:47;102032.03;;;16.44;51.99
59190;BME280;50749;51.636;4.948;2023-02-01T02:57:30;102021.63;;;16.41;51.94
59190;BME280;50749;51.636;4.948;2023-02-01T03:00:18;102025.53;;;16.40;52.01
59190;BME280;50749;51.636;4.948;2023-02-01T03:03:04;102028.31;;;16.40;51.83
59190;BME280;50749;51.636;4.948;2023-02-01T03:05:50;102034.63;;;16.40;52.10
59190;BME280;50749;51.636;4.948;2023-02-01T03:08:22;102032.19;;;16.39;51.75
59190;BME280;50749;51.636;4.948;2023-02-01T03:11:07;102030.56;;;16.38;51.92
59190;BME280;50749;51.636;4.948;2023-02-01T03:13:51;102037.53;;;16.35;52.22
59190;BME280;50749;51.636;4.948;2023-02-01T03:16:50;102039.47;;;16.34;52.17
59190;BME280;50749;51.636;4.948;2023-02-01T03:19:28;102039.47;;;16.34;52.16
59190;BME280;50749;51.636;4.948;2023-02-01T03:22:08;102039.81;;;16.33;52.02
59190;BME280;50749;51.636;4.948;2023-02-01T03:25:37;102034.28;;;16.33;51.80
59190;BME280;50749;51.636;4.948;2023-02-01T03:27:35;102031.84;;;16.31;52.01
59190;BME280;50749;51.636;4.948;2023-02-01T03:32:50;102030.72;;;16.32;51.91
59190;BME280;50749;51.636;4.948;2023-02-01T03:35:45;102036.56;;;16.31;52.13
59190;BME280;50749;51.636;4.948;2023-02-01T03:38:20;102024.69;;;16.30;52.03
59190;BME280;50749;51.636;4.948;2023-02-01T03:40:53;102020.81;;;16.31;52.11
59190;BME280;50749;51.636;4.948;2023-02-01T03:43:21;102011.41;;;16.32;52.54
59190;BME280;50749;51.636;4.948;2023-02-01T03:45:54;102027.63;;;16.34;52.44
59190;BME280;50749;51.636;4.948;2023-02-01T03:48:23;102022.63;;;16.36;52.28
59190;BME280;50749;51.636;4.948;2023-02-01T03:50:53;102025.53;;;16.40;52.55
59190;BME280;50749;51.636;4.948;2023-02-01T03:53:22;102022.16;;;16.43;52.29
59190;BME280;50749;51.636;4.948;2023-02-01T03:55:51;102013.41;;;16.49;52.18
59190;BME280;50749;51.636;4.948;2023-02-01T03:58:20;102024.78;;;16.57;51.97
59190;BME280;50749;51.636;4.948;2023-02-01T04:00:52;102033.72;;;16.62;51.97
59190;BME280;50749;51.636;4.948;2023-02-01T04:03:18;102036.53;;;16.71;51.68
59190;BME280;50749;51.636;4.948;2023-02-01T04:05:44;102039.31;;;16.80;51.72
59190;BME280;50749;51.636;4.948;2023-02-01T04:08:10;102022.31;;;16.86;51.81
59190;BME280;50749;51.636;4.948;2023-02-01T04:10:36;102015.97;;;16.95;51.97
59190;BME280;50749;51.636;4.948;2023-02-01T04:13:02;102006.06;;;17.02;52.08
59190;BME280;50749;51.636;4.948;2023-02-01T04:15:28;102003.63;;;17.09;52.17
59190;BME280;50749;51.636;4.948;2023-02-01T04:17:53;102011.44;;;17.16;52.26
59190;BME280;50749;51.636;4.948;2023-02-01T04:20:19;102014.22;;;17.25;51.95
59190;BME280;50749;51.636;4.948;2023-02-01T04:22:45;102019.25;;;17.32;52.11
59190;BME280;50749;51.636;4.948;2023-02-01T04:25:11;102018.78;;;17.38;52.00
59190;BME280;50749;51.636;4.948;2023-02-01T04:27:37;102022.97;;;17.44;51.88
59190;BME280;50749;51.636;4.948;2023-02-01T04:30:04;102024.44;;;17.51;52.12
59190;BME280;50749;51.636;4.948;2023-02-01T04:32:30;102025.09;;;17.56;51.73
59190;BME280;50749;51.636;4.948;2023-02-01T04:34:56;102032.41;;;17.61;51.56
59190;BME280;50749;51.636;4.948;2023-02-01T04:37:21;102031.09;;;17.67;51.71
59190;BME280;50749;51.636;4.948;2023-02-01T04:39:47;102021.81;;;17.72;51.61
59190;BME280;50749;51.636;4.948;2023-02-01T04:42:13;102027.53;;;17.75;51.60
59190;BME280;50749;51.636;4.948;2023-02-01T04:44:39;102028.47;;;17.79;51.35
59190;BME280;50749;51.636;4.948;2023-02-01T04:47:07;102020.66;;;17.81;51.55
59190;BME280;50749;51.636;4.948;2023-02-01T04:49:33;102016.09;;;17.86;51.15
59190;BME280;50749;51.636;4.948;2023-02-01T04:51:59;102025.72;;;17.88;51.41
59190;BME280;50749;51.636;4.948;2023-02-01T04:54:25;102030.59;;;17.91;51.29
59190;BME280;50749;51.636;4.948;2023-02-01T04:56:51;102036.59;;;17.93;51.17
59190;BME280;50749;51.636;4.948;2023-02-01T04:59:17;102033.97;;;17.97;51.29
59190;BME280;50749;51.636;4.948;2023-02-01T05:01:42;102036.44;;;17.98;50.83
59190;BME280;50749;51.636;4.948;2023-02-01T05:04:09;102031.41;;;18.00;51.17
59190;BME280;50749;51.636;4.948;2023-02-01T05:06:34;102031.03;;;18.02;50.98
59190;BME280;50749;51.636;4.948;2023-02-01T05:09:00;102031.53;;;18.04;51.18
59190;BME280;50749;51.636;4.948;2023-02-01T05:11:26;102027.63;;;18.05;51.00
59190;BME280;50749;51.636;4.948;2023-02-01T05:14:11;102016.56;;;18.05;50.83
59190;BME280;50749;51.636;4.948;2023-02-01T05:16:36;102014.63;;;18.06;51.00
59190;BME280;50749;51.636;4.948;2023-02-01T05:19:02;102019.00;;;18.07;50.60
59190;BME280;50749;51.636;4.948;2023-02-01T05:21:28;102016.38;;;18.10;50.91
59190;BME280;50749;51.636;4.948;2023-02-01T05:23:54;102010.97;;;18.14;50.91
59190;BME280;50749;51.636;4.948;2023-02-01T05:26:42;102007.22;;;18.18;50.58
59190;BME280;50749;51.636;4.948;2023-02-01T05:29:09;102008.19;;;18.23;50.66
59190;BME280;50749;51.636;4.948;2023-02-01T05:31:35;102009.16;;;18.27;50.35
59190;BME280;50749;51.636;4.948;2023-02-01T05:34:01;102011.25;;;18.30;50.62
59190;BME280;50749;51.636;4.948;2023-02-01T05:36:27;102020.03;;;18.32;50.66
59190;BME280;50749;51.636;4.948;2023-02-01T05:38:53;102020.19;;;18.35;50.27
59190;BME280;50749;51.636;4.948;2023-02-01T05:41:19;102021.50;;;18.38;50.03
59190;BME280;50749;51.636;4.948;2023-02-01T05:43:45;102026.38;;;18.41;50.34
59190;BME280;50749;51.636;4.948;2023-02-01T05:46:11;102017.72;;;18.43;50.15
59190;BME280;50749;51.636;4.948;2023-02-01T05:48:39;102029.59;;;18.43;50.38
59190;BME280;50749;51.636;4.948;2023-02-01T05:51:05;102025.72;;;18.44;50.04
59190;BME280;50749;51.636;4.948;2023-02-01T05:53:31;102017.41;;;18.44;49.75
59190;BME280;50749;51.636;4.948;2023-02-01T05:55:57;102015.44;;;18.45;49.85
59190;BME280;50749;51.636;4.948;2023-02-01T05:58:23;102022.94;;;18.44;50.06
59190;BME280;50749;51.636;4.948;2023-02-01T06:00:48;102023.75;;;18.45;49.72
59190;BME280;50749;51.636;4.948;2023-02-01T06:03:14;102018.19;;;18.45;49.71
59190;BME280;50749;51.636;4.948;2023-02-01T06:05:40;102025.72;;;18.44;49.79
59190;BME280;50749;51.636;4.948;2023-02-01T06:08:06;102022.94;;;18.35;50.04
59190;BME280;50749;51.636;4.948;2023-02-01T06:10:33;102017.13;;;18.28;49.63
59190;BME280;50749;51.636;4.948;2023-02-01T06:12:59;102032.78;;;18.24;49.64
59190;BME280;50749;51.636;4.948;2023-02-01T06:15:24;102034.25;;;18.22;49.62
59190;BME280;50749;51.636;4.948;2023-02-01T06:17:51;102041.41;;;18.23;49.94
59190;BME280;50749;51.636;4.948;2023-02-01T06:20:17;102040.59;;;18.22;49.83
59190;BME280;50749;51.636;4.948;2023-02-01T06:22:43;102042.22;;;18.23;50.17
59190;BME280;50749;51.636;4.948;2023-02-01T06:25:10;102049.72;;;18.23;49.81
59190;BME280;50749;51.636;4.948;2023-02-01T06:27:40;102043.84;;;18.24;50.27
59190;BME280;50749;51.636;4.948;2023-02-01T06:30:06;102043.84;;;18.24;50.37
59190;BME280;50749;51.636;4.948;2023-02-01T06:32:32;102046.28;;;18.26;50.38
59190;BME280;50749;51.636;4.948;2023-02-01T06:34:58;102051.84;;;18.26;50.42
59190;BME280;50749;51.636;4.948;2023-02-01T06:37:26;102044.66;;;18.25;50.56
59190;BME280;50749;51.636;4.948;2023-02-01T06:39:54;102052.50;;;18.23;50.47
59190;BME280;50749;51.636;4.948;2023-02-01T06:42:20;102050.53;;;18.23;50.67
59190;BME280;50749;51.636;4.948;2023-02-01T06:44:46;102051.84;;;18.26;50.80
59190;BME280;50749;51.636;4.948;2023-02-01T06:47:12;102048.22;;;18.25;50.72
59190;BME280;50749;51.636;4.948;2023-02-01T06:49:38;102049.41;;;18.24;50.20
59190;BME280;50749;51.636;4.948;2023-02-01T06:52:04;102052.50;;;18.23;50.36
59190;BME280;50749;51.636;4.948;2023-02-01T06:54:29;102055.72;;;18.25;50.89
59190;BME280;50749;51.636;4.948;2023-02-01T06:56:59;102049.41;;;18.24;50.68
59190;BME280;50749;51.636;4.948;2023-02-01T06:59:25;102054.59;;;18.26;50.81
59190;BME280;50749;51.636;4.948;2023-02-01T07:01:51;102048.72;;;18.27;50.47
59190;BME280;50749;51.636;4.948;2023-02-01T07:04:16;102049.53;;;18.28;50.36
59190;BME280;50749;51.636;4.948;2023-02-01T07:06:43;102024.97;;;18.26;50.51
59190;BME280;50749;51.636;4.948;2023-02-01T07:09:08;102040.44;;;18.18;49.61
59190;BME280;50749;51.636;4.948;2023-02-01T07:11:34;102040.16;;;18.11;49.45
59190;BME280;50749;51.636;4.948;2023-02-01T07:14:00;102046.34;;;18.08;49.60
59190;BME280;50749;51.636;4.948;2023-02-01T07:16:26;102050.41;;;18.11;49.76
59190;BME280;50749;51.636;4.948;2023-02-01T07:18:52;102044.88;;;18.11;50.01
59190;BME280;50749;51.636;4.948;2023-02-01T07:21:19;102054.47;;;18.13;50.16
59190;BME280;50749;51.636;4.948;2023-02-01T07:23:45;102056.09;;;18.14;50.36
59190;BME280;50749;51.636;4.948;2023-02-01T07:26:12;102056.91;;;18.15;49.59
59190;BME280;50749;51.636;4.948;2023-02-01T07:28:39;102056.91;;;18.15;49.94
59190;BME280;50749;51.636;4.948;2023-02-01T07:31:07;102057.69;;;18.15;50.01
59190;BME280;50749;51.636;4.948;2023-02-01T07:33:34;102061.63;;;18.14;49.63
59190;BME280;50749;51.636;4.948;2023-02-01T07:36:04;102051.38;;;18.15;49.46
59190;BME280;50749;51.636;4.948;2023-02-01T07:38:31;102057.69;;;18.15;49.44
59190;BME280;50749;51.636;4.948;2023-02-01T07:41:01;102053.19;;;18.11;49.37
59190;BME280;50749;51.636;4.948;2023-02-01T07:43:28;102062.28;;;18.11;49.57
59190;BME280;50749;51.636;4.948;2023-02-01T07:45:55;102054.31;;;18.10;49.22
59190;BME280;50749;51.636;4.948;2023-02-01T07:48:22;102062.13;;;18.08;49.29
59190;BME280;50749;51.636;4.948;2023-02-01T07:50:56;102065.22;;;18.06;49.37
59190;BME280;50749;51.636;4.948;2023-02-01T07:53:22;102064.75;;;18.04;49.46
59190;BME280;50749;51.636;4.948;2023-02-01T07:55:48;102078.06;;;18.02;48.93
59190;BME280;50749;51.636;4.948;2023-02-01T07:58:14;102073.72;;;18.01;49.42
59190;BME280;50749;51.636;4.948;2023-02-01T08:00:40;102074.34;;;17.98;48.90
59190;BME280;50749;51.636;4.948;2023-02-01T08:03:24;102074.34;;;17.98;49.37
59190;BME280;50749;51.636;4.948;2023-02-01T08:05:56;102081.19;;;17.92;49.45
59190;BME280;50749;51.636;4.948;2023-02-01T08:08:22;102091.31;;;17.88;48.97
59190;BME280;50749;51.636;4.948;2023-02-01T08:10:49;102090.28;;;17.83;48.75
59190;BME280;50749;51.636;4.948;2023-02-01T08:13:15;102090.28;;;17.83;48.24
59190;BME280;50749;51.636;4.948;2023-02-01T08:15:40;102081.84;;;17.80;48.67
59190;BME280;50749;51.636;4.948;2023-02-01T08:18:06;102082.47;;;17.77;48.95
59190;BME280;50749;51.636;4.948;2023-02-01T08:20:33;102088.38;;;17.75;48.91
59190;BME280;50749;51.636;4.948;2023-02-01T08:23:01;102101.34;;;17.75;48.96
59190;BME280;50749;51.636;4.948;2023-02-01T08:25:27;102093.72;;;17.72;49.02
59190;BME280;50749;51.636;4.948;2023-02-01T08:27:53;102089.66;;;17.69;49.29
59190;BME280;50749;51.636;4.948;2023-02-01T08:30:20;102092.75;;;17.68;49.20
59190;BME280;50749;51.636;4.948;2023-02-01T08:32:46;102091.44;;;17.65;48.84
59190;BME280;50749;51.636;4.948;2023-02-01T08:35:12;102090.97;;;17.63;49.22
59190;BME280;50749;51.636;4.948;2023-02-01T08:37:37;102087.72;;;17.61;48.88
59190;BME280;50749;51.636;4.948;2023-02-01T08:40:04;102080.88;;;17.58;49.33
59190;BME280;50749;51.636;4.948;2023-02-01T08:42:31;102086.75;;;17.57;48.91
59190;BME280;50749;51.636;4.948;2023-02-01T08:45:15;102079.56;;;17.56;49.31
59190;BME280;50749;51.636;4.948;2023-02-01T08:47:41;102076.00;;;17.55;49.36
59190;BME280;50749;51.636;4.948;2023-02-01T08:50:08;102074.38;;;17.54;49.13
59190;BME280;50749;51.636;4.948;2023-02-01T08:52:34;102065.28;;;17.54;49.17
59190;BME280;50749;51.636;4.948;2023-02-01T08:55:00;102066.25;;;17.49;49.24
59190;BME280;50749;51.636;4.948;2023-02-01T08:57:26;102064.28;;;17.50;49.36
59190;BME280;50749;51.636;4.948;2023-02-01T08:59:52;102070.66;;;17.50;49.20
59190;BME280;50749;51.636;4.948;2023-02-01T09:02:18;102065.44;;;17.49;49.31
59190;BME280;50749;51.636;4.948;2023-02-01T09:04:44;102055.50;;;17.48;49.27
59190;BME280;50749;51.636;4.948;2023-02-01T09:07:10;102048.34;;;17.46;48.88
59190;BME280;50749;51.636;4.948;2023-02-01T09:09:36;102050.63;;;17.44;49.22
59190;BME280;50749;51.636;4.948;2023-02-01T09:12:03;102054.53;;;17.43;49.11
59190;BME280;50749;51.636;4.948;2023-02-01T09:14:29;102059.25;;;17.43;49.21
59190;BME280;50749;51.636;4.948;2023-02-01T09:16:55;102057.63;;;17.42;49.59
59190;BME280;50749;51.636;4.948;2023-02-01T09:19:21;102059.56;;;17.41;49.38
59190;BME280;50749;51.636;4.948;2023-02-01T09:21:47;102052.44;;;17.40;49.43
59190;BME280;50749;51.636;4.948;2023-02-01T09:24:13;102054.34;;;17.40;49.41
59190;BME280;50749;51.636;4.948;2023-02-01T09:26:39;102054.72;;;17.38;49.60
59190;BME280;50749;51.636;4.948;2023-02-01T09:29:05;102059.41;;;17.38;49.77
59190;BME280;50749;51.636;4.948;2023-02-01T09:31:38;102057.47;;;17.38;49.70
59190;BME280;50749;51.636;4.948;2023-02-01T09:34:05;102055.84;;;17.37;49.70
59190;BME280;50749;51.636;4.948;2023-02-01T09:36:31;102035.69;;;17.37;50.16
59190;BME280;50749;51.636;4.948;2023-02-01T09:38:58;102031.75;;;17.38;49.95
59190;BME280;50749;51.636;4.948;2023-02-01T09:47:20;102021.84;;;17.37;50.03
59190;BME280;50749;51.636;4.948;2023-02-01T09:49:57;102017.13;;;17.37;50.10
59190;BME280;50749;51.636;4.948;2023-02-01T09:52:31;102041.06;;;17.33;49.71
59190;BME280;50749;51.636;4.948;2023-02-01T09:55:04;102037.59;;;17.36;49.59
59190;BME280;50749;51.636;4.948;2023-02-01T09:57:55;102058.91;;;17.36;50.12
59190;BME280;50749;51.636;4.948;2023-02-01T10:00:27;102066.41;;;17.35;49.83
59190;BME280;50749;51.636;4.948;2023-02-01T10:02:55;102079.06;;;17.36;49.64
59190;BME280;50749;51.636;4.948;2023-02-01T10:05:40;102075.50;;;17.36;49.62
59190;BME280;50749;51.636;4.948;2023-02-01T10:08:26;102062.50;;;17.36;49.77
59190;BME280;50749;51.636;4.948;2023-02-01T10:11:04;102064.13;;;17.37;49.97
59190;BME280;50749;51.636;4.948;2023-02-01T10:17:10;102082.66;;;17.37;50.32
59190;BME280;50749;51.636;4.948;2023-02-01T10:19:22;102097.63;;;17.36;50.21
59190;BME280;50749;51.636;4.948;2023-02-01T10:22:11;102090.44;;;17.35;50.12
59190;BME280;50749;51.636;4.948;2023-02-01T10:24:42;102099.09;;;17.33;50.16
59190;BME280;50749;51.636;4.948;2023-02-01T10:27:22;102109.31;;;17.33;49.66
59190;BME280;50749;51.636;4.948;2023-02-01T10:29:54;102096.97;;;17.30;49.83
59190;BME280;50749;51.636;4.948;2023-02-01T10:32:31;102105.91;;;17.27;49.59
59190;BME280;50749;51.636;4.948;2023-02-01T10:35:00;102099.56;;;17.26;49.89
59190;BME280;50749;51.636;4.948;2023-02-01T10:37:32;102090.78;;;17.24;49.86
59190;BME280;50749;51.636;4.948;2023-02-01T10:42:48;102078.44;;;17.22;50.00
59190;BME280;50749;51.636;4.948;2023-02-01T10:45:20;102066.88;;;17.20;49.90
59190;BME280;50749;51.636;4.948;2023-02-01T10:47:51;102063.28;;;17.19;49.35
59190;BME280;50749;51.636;4.948;2023-02-01T10:50:29;102048.66;;;17.19;49.87
59190;BME280;50749;51.636;4.948;2023-02-01T10:53:12;102061.16;;;17.16;49.96
59190;BME280;50749;51.636;4.948;2023-02-01T10:55:47;102050.13;;;17.16;49.78
59190;BME280;50749;51.636;4.948;2023-02-01T10:58:17;102070.63;;;17.15;50.27
59190;BME280;50749;51.636;4.948;2023-02-01T11:00:52;102074.50;;;17.14;49.78
59190;BME280;50749;51.636;4.948;2023-02-01T11:05:47;102064.94;;;17.12;49.56
59190;BME280;50749;51.636;4.948;2023-02-01T11:08:15;102057.75;;;17.11;49.36
59190;BME280;50749;51.636;4.948;2023-02-01T11:10:43;102049.47;;;17.11;49.25
59190;BME280;50749;51.636;4.948;2023-02-01T11:13:16;102039.53;;;17.09;49.15
59190;BME280;50749;51.636;4.948;2023-02-01T11:15:44;102037.13;;;17.08;49.26
59190;BME280;50749;51.636;4.948;2023-02-01T11:18:19;102037.78;;;17.05;49.35
59190;BME280;50749;51.636;4.948;2023-02-01T11:20:47;102048.00;;;17.04;49.48
59190;BME280;50749;51.636;4.948;2023-02-01T11:23:23;102042.78;;;17.03;49.36
59190;BME280;50749;51.636;4.948;2023-02-01T11:25:57;102050.25;;;17.02;49.38
59190;BME280;50749;51.636;4.948;2023-02-01T11:28:30;102047.03;;;17.00;49.52
59190;BME280;50749;51.636;4.948;2023-02-01T11:31:00;102040.38;;;17.01;49.16
59190;BME280;50749;51.636;4.948;2023-02-01T11:33:31;102048.97;;;17.00;49.19
59190;BME280;50749;51.636;4.948;2023-02-01T11:36:09;102032.72;;;16.98;49.38
59190;BME280;50749;51.636;4.948;2023-02-01T11:38:37;102051.75;;;17.00;49.35
59190;BME280;50749;51.636;4.948;2023-02-01T11:41:16;102033.03;;;16.97;49.29
59190;BME280;50749;51.636;4.948;2023-02-01T11:43:57;102033.38;;;16.95;49.23
59190;BME280;50749;51.636;4.948;2023-02-01T11:46:29;102030.59;;;16.95;48.84
59190;BME280;50749;51.636;4.948;2023-02-01T11:48:56;102036.44;;;16.94;49.39
59190;BME280;50749;51.636;4.948;2023-02-01T11:51:41;102023.75;;;16.93;49.28
59190;BME280;50749;51.636;4.948;2023-02-01T11:57:10;102032.38;;;16.91;49.55
59190;BME280;50749;51.636;4.948;2023-02-01T12:02:22;102038.25;;;16.89;49.61
59190;BME280;50749;51.636;4.948;2023-02-01T12:05:19;102003.78;;;16.87;49.46
59190;BME280;50749;51.636;4.948;2023-02-01T12:08:00;102022.63;;;16.85;49.76
59190;BME280;50749;51.636;4.948;2023-02-01T12:18:44;102008.31;;;16.83;49.68
59190;BME280;50749;51.636;4.948;2023-02-01T12:24:15;102018.84;;;16.81;49.63
59190;BME280;50749;51.636;4.948;2023-02-01T12:33:14;102005.66;;;16.78;49.88
59190;BME280;50749;51.636;4.948;2023-02-01T12:43:58;102001.63;;;16.75;49.42
59190;BME280;50749;51.636;4.948;2023-02-01T12:46:50;102014.63;;;16.75;49.31
59190;BME280;50749;51.636;4.948;2023-02-01T12:49:28;102007.13;;;16.75;49.51
59190;BME280;50749;51.636;4.948;2023-02-01T12:52:02;102006.00;;;16.76;49.38
59190;BME280;50749;51.636;4.948;2023-02-01T12:57:31;102002.59;;;16.79;49.64
59190;BME280;50749;51.636;4.948;2023-02-01T13:05:55;101999.00;;;16.79;49.57
59190;BME280;50749;51.636;4.948;2023-02-01T13:08:26;101997.88;;;16.80;49.51
59190;BME280;50749;51.636;4.948;2023-02-01T13:11:04;101995.44;;;16.78;49.39
59190;BME280;50749;51.636;4.948;2023-02-01T13:16:18;102006.81;;;16.77;49.53
59190;BME280;50749;51.636;4.948;2023-02-01T13:18:51;102015.09;;;16.77;49.55
59190;BME280;50749;51.636;4.948;2023-02-01T13:21:28;102009.56;;;16.77;49.58
59190;BME280;50749;51.636;4.948;2023-02-01T13:23:56;101998.53;;;16.77;49.70
59190;BME280;50749;51.636;4.948;2023-02-01T13:26:23;101998.53;;;16.77;49.53
59190;BME280;50749;51.636;4.948;2023-02-01T13:29:04;101997.72;;;16.76;49.30
59190;BME280;50749;51.636;4.948;2023-02-01T13:32:02;102004.84;;;16.77;49.61
59190;BME280;50749;51.636;4.948;2023-02-01T13:43:22;102002.13;;;16.86;49.80
59190;BME280;50749;51.636;4.948;2023-02-01T13:45:52;102020.19;;;16.92;49.32
59190;BME280;50749;51.636;4.948;2023-02-01T13:48:28;102012.22;;;16.99;49.67
59190;BME280;50749;51.636;4.948;2023-02-01T13:50:57;102019.41;;;17.09;49.75
59190;BME280;50749;51.636;4.948;2023-02-01T13:53:33;102020.56;;;17.17;49.74
59190;BME280;50749;51.636;4.948;2023-02-01T13:56:02;102012.59;;;17.24;49.84
59190;BME280;50749;51.636;4.948;2023-02-01T13:58:40;102015.66;;;17.31;49.65
59190;BME280;50749;51.636;4.948;2023-02-01T14:03:51;102013.56;;;17.45;49.17
59190;BME280;50749;51.636;4.948;2023-02-01T14:09:19;102009.66;;;17.55;49.39
59190;BME280;50749;51.636;4.948;2023-02-01T14:11:56;102020.53;;;17.60;49.16
59190;BME280;50749;51.636;4.948;2023-02-01T14:21:56;102019.03;;;17.80;49.43
59190;BME280;50749;51.636;4.948;2023-02-01T14:24:31;102025.53;;;17.85;49.65
59190;BME280;50749;51.636;4.948;2023-02-01T14:27:14;102008.31;;;17.88;49.79
59190;BME280;50749;51.636;4.948;2023-02-01T14:29:44;102010.91;;;17.93;49.63
59190;BME280;50749;51.636;4.948;2023-02-01T14:32:22;102014.16;;;17.95;49.66
59190;BME280;50749;51.636;4.948;2023-02-01T14:34:53;102019.81;;;17.98;49.45
59190;BME280;50749;51.636;4.948;2023-02-01T14:37:32;102019.97;;;18.02;49.98
59190;BME280;50749;51.636;4.948;2023-02-01T14:40:04;102006.31;;;18.06;49.83
59190;BME280;50749;51.636;4.948;2023-02-01T14:55:49;102011.66;;;18.11;49.38
59190;BME280;50749;51.636;4.948;2023-02-01T14:58:30;102024.34;;;18.12;49.52
59190;BME280;50749;51.636;4.948;2023-02-01T15:01:00;102029.56;;;18.13;49.47